Time;durP1;ratioP1;P1;durP2;ratioP2;P2;SDS_P1;SDS_P2;PMS_P1;PMS_P2;Temp;Humidity;BMP_temperature;BMP_pressure;BME280_temperature;BME280_humidity;BME280_pressure;Samples;Min_cycle;Max_cycle;Signal;HPM_P1;HPM_P2
2022/12/11 00:00:41;;;;;;;;;;;;;;;17.29;79.35;98887.56;7397727;19;1850;-64
2022/12/11 00:03:10;;;;;;;;;;;;;;;17.25;79.40;98864.88;7404402;19;1537;-65
2022/12/11 00:05:40;;;;;;;;;;;;;;;17.23;79.26;98875.72;7401197;19;1447;-64
2022/12/11 00:08:11;;;;;;;;;;;;;;;17.18;79.32;98858.53;7397627;19;1478;-65
2022/12/11 00:10:40;;;;;;;;;;;;;;;17.18;79.59;98853.19;7401216;19;1792;-65
2022/12/11 00:13:08;;;;;;;;;;;;;;;17.16;79.37;98860.53;7399476;19;953;-65
2022/12/11 00:15:39;;;;;;;;;;;;;;;17.16;79.20;98844.50;7398463;19;1420;-64
2022/12/11 00:18:07;;;;;;;;;;;;;;;17.10;79.44;98862.88;7403544;19;1511;-65
2022/12/11 00:20:36;;;;;;;;;;;;;;;17.07;79.65;98865.06;7397572;19;1849;-64
2022/12/11 00:23:06;;;;;;;;;;;;;;;17.04;79.40;98855.53;7398379;19;1442;-64
2022/12/11 00:25:37;;;;;;;;;;;;;;;17.06;79.26;98871.41;7401117;19;1325;-64
2022/12/11 00:28:05;;;;;;;;;;;;;;;17.05;79.31;98838.53;7402844;19;1436;-65
2022/12/11 00:30:33;;;;;;;;;;;;;;;17.01;79.52;98836.34;7400840;19;1517;-65
2022/12/11 00:33:01;;;;;;;;;;;;;;;17.04;79.37;98833.34;7409086;19;1466;-64
2022/12/11 00:35:30;;;;;;;;;;;;;;;17.46;77.95;98850.94;7407036;19;1787;-64
2022/12/11 00:37:58;;;;;;;;;;;;;;;18.04;76.34;98840.84;7406150;19;1029;-65
2022/12/11 00:40:26;;;;;;;;;;;;;;;18.44;75.26;98834.41;7404772;19;1840;-64
2022/12/11 00:42:57;;;;;;;;;;;;;;;18.59;74.65;98828.25;7407241;19;1529;-64
2022/12/11 00:45:26;;;;;;;;;;;;;;;18.93;73.83;98816.28;7405669;19;1399;-64
2022/12/11 00:47:54;;;;;;;;;;;;;;;19.27;73.01;98823.78;7405569;19;1398;-65
2022/12/11 00:50:22;;;;;;;;;;;;;;;19.20;73.13;98807.63;7406898;19;1438;-64
2022/12/11 00:52:51;;;;;;;;;;;;;;;18.93;74.48;98803.72;7405584;19;1018;-64
2022/12/11 00:55:19;;;;;;;;;;;;;;;18.46;76.35;98773.50;7406974;19;1434;-64
2022/12/11 00:57:48;;;;;;;;;;;;;;;18.05;76.99;98763.09;7405265;19;1018;-64
2022/12/11 01:00:19;;;;;;;;;;;;;;;17.80;77.88;98762.41;7404000;19;1846;-64
2022/12/11 01:02:47;;;;;;;;;;;;;;;17.65;78.35;98764.19;7401374;19;1457;-64
2022/12/11 01:05:16;;;;;;;;;;;;;;;17.57;78.44;98759.72;7408956;19;1012;-64
2022/12/11 01:07:44;;;;;;;;;;;;;;;17.52;78.52;98758.56;7409272;19;1574;-64
2022/12/11 01:10:25;;;;;;;;;;;;;;;17.46;78.61;98760.09;7405061;19;1387;-64
2022/12/11 01:12:54;;;;;;;;;;;;;;;17.36;78.86;98754.13;7405122;19;1026;-64
2022/12/11 01:15:26;;;;;;;;;;;;;;;17.35;78.64;98753.31;7408999;19;1398;-64
2022/12/11 01:17:54;;;;;;;;;;;;;;;17.32;78.63;98758.97;7408342;19;1426;-64
2022/12/11 01:20:23;;;;;;;;;;;;;;;17.28;78.70;98761.16;7405674;19;1848;-64
2022/12/11 01:22:53;;;;;;;;;;;;;;;17.24;78.87;98743.81;7405156;19;1430;-64
2022/12/11 01:25:22;;;;;;;;;;;;;;;17.21;78.81;98737.97;7405043;19;1054;-65
2022/12/11 01:27:51;;;;;;;;;;;;;;;17.22;78.92;98732.47;7406075;19;1360;-64
2022/12/11 01:30:21;;;;;;;;;;;;;;;17.18;78.75;98731.16;7406312;19;1490;-65
2022/12/11 01:32:52;;;;;;;;;;;;;;;17.18;78.59;98727.66;7406794;19;1446;-64
2022/12/11 01:35:20;;;;;;;;;;;;;;;17.12;78.93;98694.47;7405652;19;1438;-64
2022/12/11 01:37:49;;;;;;;;;;;;;;;17.10;78.81;98705.31;7405966;19;1513;-64
2022/12/11 01:40:19;;;;;;;;;;;;;;;17.10;78.76;98693.78;7400873;19;1838;-64
2022/12/11 01:42:47;;;;;;;;;;;;;;;17.06;78.62;98684.47;7405187;19;1462;-64
2022/12/11 01:45:26;;;;;;;;;;;;;;;17.08;78.70;98688.63;7406380;19;1497;-65
2022/12/11 01:47:59;;;;;;;;;;;;;;;17.07;78.94;98678.97;7405586;19;1506;-65
2022/12/11 01:50:27;;;;;;;;;;;;;;;16.99;78.89;98657.63;7406379;19;1494;-64
2022/12/11 01:52:56;;;;;;;;;;;;;;;17.00;78.81;98637.94;7402882;19;995;-65
2022/12/11 01:55:24;;;;;;;;;;;;;;;17.43;77.46;98642.88;7402996;19;1348;-64
2022/12/11 01:57:54;;;;;;;;;;;;;;;18.13;75.61;98633.00;7402147;19;897;-64
2022/12/11 02:00:23;;;;;;;;;;;;;;;18.49;74.11;98622.41;7404776;19;1870;-64
2022/12/11 02:02:51;;;;;;;;;;;;;;;18.69;73.61;98626.19;7401599;19;1530;-64
2022/12/11 02:05:22;;;;;;;;;;;;;;;19.18;72.40;98623.91;7403640;19;1619;-64
2022/12/11 02:07:55;;;;;;;;;;;;;;;19.35;71.76;98617.31;7399729;19;994;-65
2022/12/11 02:10:25;;;;;;;;;;;;;;;19.48;71.54;98606.75;7404351;19;1888;-64
2022/12/11 02:12:55;;;;;;;;;;;;;;;19.20;73.01;98611.16;7401613;19;977;-65
2022/12/11 02:15:27;;;;;;;;;;;;;;;18.55;75.51;98616.31;7406037;19;1478;-65
2022/12/11 02:18:01;;;;;;;;;;;;;;;18.10;76.22;98602.06;7402134;19;1371;-64
2022/12/11 02:20:35;;;;;;;;;;;;;;;17.80;76.94;98598.50;7401192;19;1853;-64
2022/12/11 02:23:14;;;;;;;;;;;;;;;17.66;77.18;98608.13;7401194;19;956;-64
2022/12/11 02:25:46;;;;;;;;;;;;;;;17.56;77.17;98591.50;7404378;19;1422;-65
2022/12/11 02:28:20;;;;;;;;;;;;;;;17.46;77.44;98597.09;7401085;19;1526;-64
2022/12/11 02:30:52;;;;;;;;;;;;;;;17.42;77.66;98603.81;7402046;19;1459;-64
2022/12/11 02:33:23;;;;;;;;;;;;;;;17.33;77.75;98588.81;7403640;19;1505;-65
2022/12/11 02:35:52;;;;;;;;;;;;;;;17.36;77.66;98601.84;7403711;19;1148;-64
2022/12/11 02:38:24;;;;;;;;;;;;;;;17.31;77.44;98599.72;7401532;19;1505;-65
2022/12/11 02:40:54;;;;;;;;;;;;;;;17.30;77.71;98590.03;7399795;19;1858;-65
2022/12/11 02:43:25;;;;;;;;;;;;;;;17.24;77.67;98591.56;7405054;19;1572;-64
2022/12/11 02:45:55;;;;;;;;;;;;;;;17.23;77.71;98592.59;7400228;19;988;-64
2022/12/11 02:48:24;;;;;;;;;;;;;;;17.21;77.84;98588.41;7401172;19;956;-64
2022/12/11 02:50:54;;;;;;;;;;;;;;;17.19;77.60;98590.41;7402868;19;1438;-64
2022/12/11 02:53:24;;;;;;;;;;;;;;;17.17;77.53;98592.44;7400315;19;1014;-65
2022/12/11 02:55:56;;;;;;;;;;;;;;;17.10;77.69;98590.47;7398695;19;803;-64
2022/12/11 02:58:28;;;;;;;;;;;;;;;17.10;77.59;98568.28;7400862;19;1385;-65
2022/12/11 03:00:56;;;;;;;;;;;;;;;17.13;77.58;98577.78;7398149;19;1856;-64
2022/12/11 03:03:25;;;;;;;;;;;;;;;17.07;77.49;98564.13;7403120;19;1281;-64
2022/12/11 03:05:53;;;;;;;;;;;;;;;17.08;77.64;98576.47;7400924;19;1380;-65
2022/12/11 03:08:21;;;;;;;;;;;;;;;17.06;77.65;98565.13;7399491;19;1058;-64
2022/12/11 03:10:50;;;;;;;;;;;;;;;17.05;77.54;98570.63;7400250;19;1528;-64
2022/12/11 03:13:20;;;;;;;;;;;;;;;17.03;77.74;98551.28;7399566;19;1414;-65
2022/12/11 03:16:00;;;;;;;;;;;;;;;17.49;76.17;98554.81;7403864;19;1474;-64
2022/12/11 03:18:32;;;;;;;;;;;;;;;18.11;74.25;98570.84;7398728;19;1387;-64
2022/12/11 03:21:04;;;;;;;;;;;;;;;18.37;73.48;98575.72;7398656;19;1827;-64
2022/12/11 03:23:35;;;;;;;;;;;;;;;18.61;73.02;98571.94;7400327;19;1380;-65
2022/12/11 03:26:06;;;;;;;;;;;;;;;18.98;71.88;98580.84;7402397;19;969;-64
2022/12/11 03:28:39;;;;;;;;;;;;;;;19.27;70.97;98572.72;7400009;19;1589;-64
2022/12/11 03:31:11;;;;;;;;;;;;;;;19.31;70.80;98550.91;7399266;19;979;-64
2022/12/11 03:33:41;;;;;;;;;;;;;;;18.88;72.29;98557.88;7402719;19;1509;-64
2022/12/11 03:36:12;;;;;;;;;;;;;;;18.35;74.56;98569.75;7401109;19;1562;-64
2022/12/11 03:38:42;;;;;;;;;;;;;;;18.01;75.00;98563.91;7400610;19;1507;-65
2022/12/11 03:41:13;;;;;;;;;;;;;;;17.80;75.88;98553.88;7402689;19;1862;-64
2022/12/11 03:43:42;;;;;;;;;;;;;;;17.64;76.10;98546.81;7400634;19;1296;-64
2022/12/11 03:46:14;;;;;;;;;;;;;;;17.59;76.22;98553.75;7398628;19;1067;-65
2022/12/11 03:48:45;;;;;;;;;;;;;;;17.49;76.18;98544.13;7401980;19;1356;-64
2022/12/11 03:51:14;;;;;;;;;;;;;;;17.46;76.22;98544.47;7400772;19;1437;-65
2022/12/11 03:53:42;;;;;;;;;;;;;;;17.43;76.16;98531.50;7400940;19;1367;-65
2022/12/11 03:56:12;;;;;;;;;;;;;;;17.37;76.18;98532.22;7402034;19;964;-64
2022/12/11 03:58:40;;;;;;;;;;;;;;;17.33;76.58;98535.41;7400340;19;1317;-65
2022/12/11 04:01:13;;;;;;;;;;;;;;;17.30;76.33;98513.38;7396779;19;1869;-65
2022/12/11 04:03:41;;;;;;;;;;;;;;;17.27;76.51;98518.28;7400386;19;1462;-65
2022/12/11 04:06:10;;;;;;;;;;;;;;;17.24;76.31;98543.47;7402333;19;1588;-64
2022/12/11 04:08:38;;;;;;;;;;;;;;;17.19;76.52;98539.69;7408095;19;1505;-64
2022/12/11 04:15:00;;;;;;;;;;;;;;;17.19;76.46;98545.00;7408272;19;1450;-64
2022/12/11 04:16:36;;;;;;;;;;;;;;;17.14;76.49;98523.38;7404626;19;1375;-64
2022/12/11 04:24:37;;;;;;;;;;;;;;;17.09;76.12;98534.59;7405814;19;765;-64
2022/12/11 04:27:05;;;;;;;;;;;;;;;17.09;76.40;98534.59;7405273;19;1427;-65
2022/12/11 04:29:33;;;;;;;;;;;;;;;17.04;76.58;98528.94;7407406;19;1505;-65
2022/12/11 04:32:04;;;;;;;;;;;;;;;17.03;76.57;98552.16;7405427;19;1074;-64
2022/12/11 04:34:32;;;;;;;;;;;;;;;17.21;75.95;98525.16;7408775;19;1325;-64
2022/12/11 04:37:01;;;;;;;;;;;;;;;17.86;73.89;98531.78;7406151;19;1411;-65
2022/12/11 04:39:29;;;;;;;;;;;;;;;18.29;72.56;98537.34;7408484;19;1190;-64
2022/12/11 04:41:57;;;;;;;;;;;;;;;18.59;71.77;98529.28;7401807;19;1834;-64
2022/12/11 04:44:26;;;;;;;;;;;;;;;19.06;70.33;98537.88;7404654;19;1004;-65
2022/12/11 04:46:54;;;;;;;;;;;;;;;19.45;69.31;98536.59;7404235;19;1446;-64
2022/12/11 04:49:25;;;;;;;;;;;;;;;19.22;69.88;98534.13;7404781;19;1181;-65
2022/12/11 04:51:53;;;;;;;;;;;;;;;18.67;71.67;98544.41;7407799;19;1197;-64
2022/12/11 04:54:22;;;;;;;;;;;;;;;18.32;73.16;98548.69;7406289;19;1473;-64
2022/12/11 04:56:50;;;;;;;;;;;;;;;18.22;74.45;98562.34;7403248;19;993;-65
2022/12/11 04:59:18;;;;;;;;;;;;;;;18.16;75.65;98552.38;7404630;19;1044;-63
2022/12/11 05:01:47;;;;;;;;;;;;;;;18.11;76.06;98560.97;7402273;19;1849;-61
2022/12/11 05:04:15;;;;;;;;;;;;;;;17.99;76.47;98567.78;7406948;19;1477;-61
2022/12/11 05:06:46;;;;;;;;;;;;;;;17.94;76.65;98572.81;7407410;19;1482;-61
2022/12/11 05:09:15;;;;;;;;;;;;;;;17.84;76.98;98568.56;7406771;19;1435;-60
2022/12/11 05:11:43;;;;;;;;;;;;;;;17.92;77.86;98585.56;7403361;19;1457;-60
2022/12/11 05:14:11;;;;;;;;;;;;;;;18.57;75.85;98592.06;7405392;19;1481;-59
2022/12/11 05:16:40;;;;;;;;;;;;;;;19.26;72.78;98559.53;7403174;19;1083;-59
2022/12/11 05:19:08;;;;;;;;;;;;;;;19.40;72.37;98576.56;7403403;19;1443;-61
2022/12/11 05:21:36;;;;;;;;;;;;;;;19.77;71.26;98564.72;7403837;19;1849;-61
2022/12/11 05:24:07;;;;;;;;;;;;;;;19.93;70.97;98560.13;7403780;19;1404;-59
2022/12/11 05:26:36;;;;;;;;;;;;;;;20.18;70.45;98574.75;7407591;19;1328;-61
2022/12/11 05:29:04;;;;;;;;;;;;;;;20.24;70.41;98562.41;7404340;19;1466;-61
2022/12/11 05:31:32;;;;;;;;;;;;;;;20.21;70.44;98562.78;7404932;19;1459;-60
2022/12/11 05:34:01;;;;;;;;;;;;;;;20.18;71.34;98574.75;7405094;19;1513;-59
2022/12/11 05:36:30;;;;;;;;;;;;;;;20.32;70.42;98562.22;7405900;19;1391;-61
2022/12/11 05:38:59;;;;;;;;;;;;;;;20.34;70.21;98578.16;7406226;19;1568;-61
2022/12/11 05:41:31;;;;;;;;;;;;;;;20.27;70.30;98596.88;7400214;19;1871;-60
2022/12/11 05:43:59;;;;;;;;;;;;;;;19.78;72.25;98611.19;7403506;19;1586;-60
2022/12/11 05:46:28;;;;;;;;;;;;;;;19.34;73.96;98604.94;7404008;19;1308;-60
2022/12/11 05:48:58;;;;;;;;;;;;;;;19.01;74.80;98616.13;7401005;19;1352;-61
2022/12/11 05:51:26;;;;;;;;;;;;;;;18.82;75.95;98632.75;7402317;19;1379;-59
2022/12/11 05:53:56;;;;;;;;;;;;;;;18.64;76.44;98625.09;7406596;19;1395;-61
2022/12/11 05:56:25;;;;;;;;;;;;;;;18.53;76.69;98650.47;7405162;19;1359;-60
2022/12/11 05:58:56;;;;;;;;;;;;;;;18.45;76.87;98653.25;7401688;19;1035;-61
2022/12/11 06:01:26;;;;;;;;;;;;;;;18.43;76.99;98649.91;7400339;19;1858;-60
2022/12/11 06:03:54;;;;;;;;;;;;;;;18.44;76.99;98648.88;7404383;19;1546;-61
2022/12/11 06:06:23;;;;;;;;;;;;;;;18.39;77.24;98648.63;7403941;19;1395;-63
2022/12/11 06:08:52;;;;;;;;;;;;;;;18.36;76.87;98651.66;7404741;19;1572;-63
2022/12/11 06:11:21;;;;;;;;;;;;;;;18.31;77.39;98657.56;7401370;19;1482;-64
2022/12/11 06:13:49;;;;;;;;;;;;;;;18.39;76.88;98670.03;7400105;19;1343;-62
2022/12/11 06:16:21;;;;;;;;;;;;;;;18.43;76.84;98663.31;7400766;19;1071;-63
2022/12/11 06:18:49;;;;;;;;;;;;;;;18.44;76.76;98675.66;7405474;19;1387;-61
2022/12/11 06:21:19;;;;;;;;;;;;;;;18.45;76.61;98686.19;7402276;19;1869;-63
2022/12/11 06:23:48;;;;;;;;;;;;;;;18.29;77.15;98689.03;7404606;19;1526;-61
2022/12/11 06:26:17;;;;;;;;;;;;;;;18.13;77.32;98687.31;7402950;19;1268;-61
2022/12/11 06:28:45;;;;;;;;;;;;;;;18.17;77.44;98693.97;7404544;19;1506;-61
2022/12/11 06:31:14;;;;;;;;;;;;;;;18.19;77.51;98701.81;7399014;19;988;-63
2022/12/11 06:33:44;;;;;;;;;;;;;;;18.24;77.30;98704.78;7402894;19;1194;-59
2022/12/11 06:36:15;;;;;;;;;;;;;;;19.02;74.26;98695.47;7402612;19;1392;-61
2022/12/11 06:38:44;;;;;;;;;;;;;;;19.33;73.58;98691.72;7399241;19;1026;-62
2022/12/11 06:41:13;;;;;;;;;;;;;;;19.88;71.60;98700.19;7400021;19;1840;-63
2022/12/11 06:43:42;;;;;;;;;;;;;;;19.89;71.89;98690.28;7402408;19;1347;-61
2022/12/11 06:46:12;;;;;;;;;;;;;;;20.09;71.51;98693.16;7402099;19;1280;-61
2022/12/11 06:48:41;;;;;;;;;;;;;;;20.11;71.59;98713.38;7391546;19;1470;-61
2022/12/11 06:51:13;;;;;;;;;;;;;;;20.14;71.51;98715.69;7403131;19;1270;-61
2022/12/11 06:53:41;;;;;;;;;;;;;;;20.12;71.33;98704.31;7400403;19;1171;-62
2022/12/11 06:56:11;;;;;;;;;;;;;;;20.02;71.46;98698.47;7396318;19;1537;-62
2022/12/11 06:58:40;;;;;;;;;;;;;;;20.08;71.00;98699.53;7402407;19;1233;-61
2022/12/11 07:01:15;;;;;;;;;;;;;;;19.98;71.16;98718.66;7400567;19;1854;-63
2022/12/11 07:03:43;;;;;;;;;;;;;;;19.56;72.62;98731.78;7401375;19;1198;-62
2022/12/11 07:06:15;;;;;;;;;;;;;;;19.13;74.40;98728.16;7400329;19;1342;-62
2022/12/11 07:08:43;;;;;;;;;;;;;;;18.90;76.03;98737.13;7396794;19;968;-62
2022/12/11 07:11:12;;;;;;;;;;;;;;;18.74;76.04;98735.44;7398712;19;1014;-61
2022/12/11 07:13:41;;;;;;;;;;;;;;;18.62;76.28;98739.53;7399088;19;1010;-63
2022/12/11 07:16:10;;;;;;;;;;;;;;;18.54;76.85;98748.47;7403832;19;1511;-64
2022/12/11 07:18:39;;;;;;;;;;;;;;;18.57;77.17;98756.16;7398102;19;1433;-61
2022/12/11 07:21:08;;;;;;;;;;;;;;;18.57;76.88;98747.31;7399947;19;1368;-63
2022/12/11 07:23:39;;;;;;;;;;;;;;;18.54;76.94;98763.72;7400392;19;1862;-61
2022/12/11 07:26:08;;;;;;;;;;;;;;;18.43;77.13;98759.66;7401989;19;960;-63
2022/12/11 07:28:37;;;;;;;;;;;;;;;18.27;77.72;98750.72;7402373;19;1534;-61
2022/12/11 07:31:06;;;;;;;;;;;;;;;18.28;77.68;98744.38;7401029;19;1391;-65
2022/12/11 07:33:35;;;;;;;;;;;;;;;18.36;76.74;98756.00;7399976;19;1454;-63
2022/12/11 07:36:04;;;;;;;;;;;;;;;18.46;76.87;98753.91;7397577;19;1000;-63
2022/12/11 07:38:34;;;;;;;;;;;;;;;18.68;76.63;98755.72;7400467;19;1264;-67
2022/12/11 07:41:05;;;;;;;;;;;;;;;18.72;76.63;98760.69;7400377;19;1217;-61
2022/12/11 07:43:34;;;;;;;;;;;;;;;18.73;76.66;98763.22;7399318;19;1849;-67
2022/12/11 07:46:03;;;;;;;;;;;;;;;18.84;76.88;98761.94;7398455;19;961;-66
2022/12/11 07:48:31;;;;;;;;;;;;;;;18.95;76.45;98772.22;7399032;19;1510;-64
2022/12/11 07:51:08;;;;;;;;;;;;;;;18.81;76.65;98775.72;7397489;19;1475;-70
2022/12/11 07:53:37;;;;;;;;;;;;;;;18.84;77.01;98757.44;7398393;19;1505;-71
2022/12/11 07:56:08;;;;;;;;;;;;;;;19.33;75.58;98769.44;7399589;19;1458;-63
2022/12/11 07:58:37;;;;;;;;;;;;;;;20.00;74.07;98786.34;7401142;19;1262;-67
2022/12/11 08:01:06;;;;;;;;;;;;;;;20.36;73.24;98780.09;7396588;19;1497;-68
2022/12/11 08:03:34;;;;;;;;;;;;;;;20.42;73.20;98792.75;7397477;19;1846;-68
2022/12/11 08:06:02;;;;;;;;;;;;;;;20.42;73.06;98779.31;7400826;19;1498;-66
2022/12/11 08:08:31;;;;;;;;;;;;;;;20.61;72.85;98776.00;7393065;19;1446;-62
2022/12/11 08:11:02;;;;;;;;;;;;;;;20.68;71.93;98773.38;7397024;19;1289;-64
2022/12/11 08:13:33;;;;;;;;;;;;;;;20.38;72.82;98788.78;7398452;19;1168;-69
2022/12/11 08:16:04;;;;;;;;;;;;;;;19.91;74.52;98792.84;7398349;19;1110;-72
2022/12/11 08:18:34;;;;;;;;;;;;;;;19.58;75.80;98786.06;7400014;19;1408;-66
2022/12/11 08:21:06;;;;;;;;;;;;;;;19.37;77.12;98780.63;7397271;19;1305;-69
2022/12/11 08:23:34;;;;;;;;;;;;;;;19.33;77.09;98788.19;7396656;19;1849;-75
2022/12/11 08:26:03;;;;;;;;;;;;;;;19.33;76.94;98788.19;7398618;19;1071;-69
2022/12/11 08:28:34;;;;;;;;;;;;;;;19.25;77.38;98788.28;7400610;19;1364;-70
2022/12/11 08:31:05;;;;;;;;;;;;;;;19.07;77.17;98777.94;7398253;19;1493;-63
2022/12/11 08:33:34;;;;;;;;;;;;;;;19.04;79.81;98781.00;7398063;19;1455;-71
2022/12/11 08:36:04;;;;;;;;;;;;;;;19.02;79.90;98773.16;7397108;19;1364;-65
2022/12/11 08:38:32;;;;;;;;;;;;;;;19.01;79.56;98776.00;7402494;19;1347;-63
2022/12/11 08:41:00;;;;;;;;;;;;;;;18.94;79.32;98773.25;7399112;19;1510;-67
2022/12/11 08:43:29;;;;;;;;;;;;;;;18.90;79.15;98785.34;7397286;19;1845;-75
2022/12/11 08:46:00;;;;;;;;;;;;;;;18.92;79.00;98788.66;7397411;19;1439;-64
2022/12/11 08:48:28;;;;;;;;;;;;;;;18.92;78.92;98788.66;7397062;19;962;-71
2022/12/11 08:50:57;;;;;;;;;;;;;;;18.91;78.79;98789.66;7396481;19;1395;-71
2022/12/11 08:53:25;;;;;;;;;;;;;;;19.01;78.60;98792.09;7400785;19;1475;-71
2022/12/11 08:55:54;;;;;;;;;;;;;;;19.08;78.41;98782.31;7405647;19;1305;-64
2022/12/11 08:58:22;;;;;;;;;;;;;;;19.10;78.31;98791.00;7406272;19;1431;-65
2022/12/11 09:00:50;;;;;;;;;;;;;;;19.12;77.47;98804.19;7408569;19;1449;-65
2022/12/11 09:03:21;;;;;;;;;;;;;;;18.99;77.28;98802.16;7405878;19;1845;-58
2022/12/11 09:05:50;;;;;;;;;;;;;;;19.00;77.24;98807.34;7404736;19;1585;-65
2022/12/11 09:08:18;;;;;;;;;;;;;;;18.98;77.28;98808.50;7405145;19;1256;-59
2022/12/11 09:10:47;;;;;;;;;;;;;;;18.96;76.97;98800.69;7404420;19;1571;-60
2022/12/11 09:13:15;;;;;;;;;;;;;;;18.96;76.90;98811.41;7404341;19;1470;-60
2022/12/11 09:15:43;;;;;;;;;;;;;;;18.91;77.17;98802.22;7407594;19;1423;-65
2022/12/11 09:18:12;;;;;;;;;;;;;;;18.77;75.98;98820.72;7405173;19;1487;-65
2022/12/11 09:20:42;;;;;;;;;;;;;;;18.78;75.56;98808.16;7404630;19;1526;-65
2022/12/11 09:23:11;;;;;;;;;;;;;;;18.67;75.97;98807.59;7399837;19;1841;-65
2022/12/11 09:25:41;;;;;;;;;;;;;;;18.63;76.08;98816.19;7406299;19;989;-59
2022/12/11 09:28:09;;;;;;;;;;;;;;;18.69;75.88;98826.16;7402449;19;950;-60
2022/12/11 09:30:37;;;;;;;;;;;;;;;18.65;75.81;98811.47;7404983;19;1813;-59
2022/12/11 09:33:06;;;;;;;;;;;;;;;18.64;75.85;98829.41;7402239;19;1919;-59
2022/12/11 09:35:34;;;;;;;;;;;;;;;18.65;76.07;98804.28;7403573;19;1014;-65
2022/12/11 09:38:05;;;;;;;;;;;;;;;18.72;75.81;98824.97;7406403;19;1750;-60
2022/12/11 09:40:33;;;;;;;;;;;;;;;18.73;75.75;98814.06;7406687;19;1019;-69
2022/12/11 09:43:04;;;;;;;;;;;;;;;18.71;76.25;98813.44;7401732;19;1849;-59
2022/12/11 09:45:33;;;;;;;;;;;;;;;18.57;76.16;98812.38;7403368;19;1547;-64
2022/12/11 09:48:02;;;;;;;;;;;;;;;18.55;76.87;98841.16;7405655;19;1023;-59
2022/12/11 09:50:33;;;;;;;;;;;;;;;18.42;76.69;98820.38;7402483;19;1002;-59
2022/12/11 09:53:08;;;;;;;;;;;;;;;18.42;76.69;98823.06;7402813;19;1015;-67
2022/12/11 09:55:41;;;;;;;;;;;;;;;18.39;76.83;98820.72;7404367;19;1045;-60
2022/12/11 09:58:16;;;;;;;;;;;;;;;18.44;76.79;98825.53;7407249;19;1176;-59
2022/12/11 10:00:48;;;;;;;;;;;;;;;18.49;76.76;98828.50;7402412;19;1424;-61
2022/12/11 10:03:32;;;;;;;;;;;;;;;18.45;76.61;98822.66;7398910;19;1862;-61
2022/12/11 10:06:03;;;;;;;;;;;;;;;18.46;77.92;98831.53;7399691;19;1275;-62
2022/12/11 10:08:38;;;;;;;;;;;;;;;18.42;77.63;98849.81;7402016;19;1190;-67
2022/12/11 10:11:18;;;;;;;;;;;;;;;18.39;77.19;98858.19;7402683;19;1074;-62
2022/12/11 10:13:51;;;;;;;;;;;;;;;18.37;77.30;98830.75;7400624;19;1556;-65
2022/12/11 10:16:23;;;;;;;;;;;;;;;18.36;77.18;98825.59;7403179;19;915;-65
2022/12/11 10:18:51;;;;;;;;;;;;;;;18.36;77.05;98839.78;7398880;19;992;-66
2022/12/11 10:21:20;;;;;;;;;;;;;;;18.36;77.01;98831.75;7398079;19;1000;-61
2022/12/11 10:23:54;;;;;;;;;;;;;;;18.35;76.96;98824.75;7397900;19;1866;-61
2022/12/11 10:26:23;;;;;;;;;;;;;;;18.33;77.11;98809.91;7403727;19;973;-61
2022/12/11 10:28:53;;;;;;;;;;;;;;;18.38;76.95;98812.84;7401577;19;962;-61
2022/12/11 10:31:21;;;;;;;;;;;;;;;18.42;76.86;98798.09;7402080;19;979;-64
2022/12/11 10:33:55;;;;;;;;;;;;;;;18.41;76.80;98818.69;7401610;19;988;-65
2022/12/11 10:36:28;;;;;;;;;;;;;;;18.34;77.23;98823.09;7401136;19;972;-65
2022/12/11 10:38:59;;;;;;;;;;;;;;;18.31;77.12;98817.28;7401602;19;1010;-65
2022/12/11 10:41:35;;;;;;;;;;;;;;;18.25;77.13;98819.66;7401709;19;1022;-61
2022/12/11 10:44:15;;;;;;;;;;;;;;;18.20;77.57;98829.22;7398016;19;1856;-65
2022/12/11 10:46:43;;;;;;;;;;;;;;;18.13;77.56;98847.00;7401218;19;1201;-65
2022/12/11 10:49:22;;;;;;;;;;;;;;;18.10;77.39;98829.44;7401126;19;968;-61
2022/12/11 10:51:51;;;;;;;;;;;;;;;18.05;77.47;98829.16;7401789;19;1006;-65
2022/12/11 10:54:31;;;;;;;;;;;;;;;18.02;77.52;98834.84;7400862;19;1212;-65
2022/12/11 10:57:00;;;;;;;;;;;;;;;17.99;77.40;98835.22;7399660;19;997;-61
2022/12/11 10:59:32;;;;;;;;;;;;;;;17.96;77.74;98838.22;7401975;19;935;-65
2022/12/11 11:02:00;;;;;;;;;;;;;;;17.94;77.69;98840.25;7398944;19;1439;-66
2022/12/11 11:04:31;;;;;;;;;;;;;;;17.92;77.97;98834.22;7399378;19;1848;-61
2022/12/11 11:07:03;;;;;;;;;;;;;;;17.88;77.72;98826.53;7400765;19;976;-65
2022/12/11 11:09:36;;;;;;;;;;;;;;;17.85;77.81;98842.97;7400814;19;1010;-62
2022/12/11 11:12:05;;;;;;;;;;;;;;;17.83;77.74;98842.31;7400499;19;924;-61
2022/12/11 11:14:34;;;;;;;;;;;;;;;17.81;77.93;98841.63;7400697;19;997;-62
2022/12/11 11:17:02;;;;;;;;;;;;;;;17.80;78.01;98837.25;7398599;19;1022;-65
2022/12/11 11:19:32;;;;;;;;;;;;;;;17.81;77.80;98849.63;7400177;19;1228;-66
2022/12/11 11:22:02;;;;;;;;;;;;;;;17.81;78.07;98849.63;7400457;19;1029;-65
2022/12/11 11:24:36;;;;;;;;;;;;;;;17.77;77.91;98853.66;7399736;19;1845;-61
2022/12/11 11:27:05;;;;;;;;;;;;;;;17.79;78.05;98857.00;7399956;19;1021;-65
2022/12/11 11:29:36;;;;;;;;;;;;;;;17.80;78.26;98857.81;7399933;19;997;-61
2022/12/11 11:32:16;;;;;;;;;;;;;;;17.73;78.23;98864.88;7399973;19;1028;-65
2022/12/11 11:34:44;;;;;;;;;;;;;;;17.72;78.03;98866.69;7401168;19;1330;-61
2022/12/11 11:37:33;;;;;;;;;;;;;;;17.69;78.35;98883.09;7399595;19;981;-61
2022/12/11 11:40:07;;;;;;;;;;;;;;;17.65;78.26;98879.13;7399302;19;1168;-65
2022/12/11 11:42:42;;;;;;;;;;;;;;;17.67;78.00;98890.47;7399317;19;1194;-66
2022/12/11 11:45:15;;;;;;;;;;;;;;;17.66;78.13;98867.41;7400026;19;1002;-61
2022/12/11 11:47:49;;;;;;;;;;;;;;;17.67;77.92;98869.91;7399884;19;923;-61
2022/12/11 11:50:19;;;;;;;;;;;;;;;17.65;77.94;98855.06;7400344;19;955;-61
2022/12/11 11:52:50;;;;;;;;;;;;;;;17.65;77.61;98865.75;7399632;19;1000;-65
2022/12/11 11:55:29;;;;;;;;;;;;;;;17.66;78.04;98868.22;7400517;19;1052;-61
2022/12/11 11:58:01;;;;;;;;;;;;;;;17.64;78.10;98870.25;7399761;19;1010;-61
2022/12/11 12:00:30;;;;;;;;;;;;;;;17.64;77.96;98869.41;7399120;19;1000;-66
2022/12/11 12:03:01;;;;;;;;;;;;;;;17.62;77.79;98877.59;7397364;19;1851;-62
2022/12/11 12:05:33;;;;;;;;;;;;;;;17.60;77.71;98874.25;7400116;19;952;-65
2022/12/11 12:08:08;;;;;;;;;;;;;;;17.61;77.69;98878.63;7398422;19;1047;-61
2022/12/11 12:10:45;;;;;;;;;;;;;;;17.62;77.77;98858.88;7398363;19;1071;-61
2022/12/11 12:13:17;;;;;;;;;;;;;;;17.66;77.78;98867.41;7398834;19;936;-66
2022/12/11 12:15:52;;;;;;;;;;;;;;;17.65;77.79;98861.22;7399186;19;1056;-65
2022/12/11 12:18:26;;;;;;;;;;;;;;;17.64;77.82;98862.22;7398978;19;1040;-61
2022/12/11 12:20:57;;;;;;;;;;;;;;;17.67;77.70;98877.09;7398658;19;1021;-61
2022/12/11 12:23:40;;;;;;;;;;;;;;;17.65;77.72;98868.41;7398683;19;1839;-61
2022/12/11 12:26:16;;;;;;;;;;;;;;;17.63;77.88;98881.13;7401522;19;2033;-65
2022/12/11 12:28:52;;;;;;;;;;;;;;;17.61;77.91;98885.81;7405260;19;1023;-65
2022/12/11 12:31:30;;;;;;;;;;;;;;;17.60;78.00;98906.34;7404616;19;1092;-61
2022/12/11 12:34:02;;;;;;;;;;;;;;;17.59;78.10;98882.47;7406087;19;963;-61
2022/12/11 12:36:36;;;;;;;;;;;;;;;17.55;77.69;98891.81;7407828;19;1474;-62
2022/12/11 12:39:07;;;;;;;;;;;;;;;17.56;77.40;98904.19;7409388;19;1505;-64
2022/12/11 12:41:45;;;;;;;;;;;;;;;17.59;77.40;98904.69;7407494;19;1537;-61
2022/12/11 12:44:17;;;;;;;;;;;;;;;17.56;77.68;98901.50;7407641;19;1849;-60
2022/12/11 12:46:51;;;;;;;;;;;;;;;17.54;77.49;98900.84;7407803;19;1563;-60
2022/12/11 12:49:25;;;;;;;;;;;;;;;17.76;77.31;98926.84;7408462;19;1150;-61
2022/12/11 12:51:53;;;;;;;;;;;;;;;17.92;77.42;98917.13;7409275;19;1415;-57
2022/12/11 12:54:23;;;;;;;;;;;;;;;17.87;77.63;98912.31;7405781;19;1083;-62
2022/12/11 12:56:54;;;;;;;;;;;;;;;17.85;78.05;98936.53;7404409;19;963;-61
2022/12/11 12:59:24;;;;;;;;;;;;;;;17.83;78.62;98941.22;7404803;19;1029;-65
2022/12/11 13:01:55;;;;;;;;;;;;;;;17.83;77.92;98954.59;7405263;19;1512;-65
2022/12/11 13:04:36;;;;;;;;;;;;;;;17.98;76.95;98940.50;7403604;19;1858;-65
2022/12/11 13:07:13;;;;;;;;;;;;;;;18.06;77.04;98933.28;7405729;19;1486;-61
2022/12/11 13:09:41;;;;;;;;;;;;;;;18.03;77.22;98940.81;7407549;19;1371;-65
2022/12/11 13:12:17;;;;;;;;;;;;;;;17.93;77.87;98938.34;7408712;19;1179;-67
2022/12/11 13:14:45;;;;;;;;;;;;;;;17.85;78.09;98946.41;7406909;19;1344;-62
2022/12/11 13:17:36;;;;;;;;;;;;;;;17.85;77.71;98949.91;7404997;19;1004;-65
2022/12/11 13:20:17;;;;;;;;;;;;;;;17.99;77.55;98947.53;7407083;19;1463;-65
2022/12/11 13:22:53;;;;;;;;;;;;;;;18.06;77.40;98954.69;7403727;19;1072;-62